Time;durP1;ratioP1;P1;durP2;ratioP2;P2;SDS_P1;SDS_P2;PMS_P1;PMS_P2;Temp;Humidity;BMP_temperature;BMP_pressure;BME280_temperature;BME280_humidity;BME280_pressure;Samples;Min_cycle;Max_cycle;Signal;HPM_P1;HPM_P2
2022/04/08 00:02:13;;;;;;;4.05;1.75;;;;;;;6.69;75.90;97760.95;1768232;79;98462;-69
2022/04/08 00:04:40;;;;;;;8.68;2.22;;;;;;;6.65;75.93;97765.27;1770353;79;26284;-69
2022/04/08 00:07:12;;;;;;;4.12;1.40;;;;;;;6.62;75.92;97765.02;1756731;79;25848;-70
2022/04/08 00:09:39;;;;;;;4.67;1.75;;;;;;;6.62;75.53;97758.84;1754773;79;98289;-69
2022/04/08 00:12:09;;;;;;;8.35;2.33;;;;;;;6.61;75.75;97756.66;1760346;79;25758;-69
2022/04/08 00:14:38;;;;;;;4.53;1.40;;;;;;;6.60;75.71;97763.43;1771987;79;98312;-68
2022/04/08 00:17:04;;;;;;;4.67;1.45;;;;;;;6.58;75.68;97766.20;1765409;79;26594;-69
2022/04/08 00:19:32;;;;;;;9.68;2.00;;;;;;;6.57;75.63;97756.52;1758108;79;25933;-69
2022/04/08 00:21:58;;;;;;;6.30;1.50;;;;;;;6.55;75.63;97754.45;1756887;79;98182;-69
2022/04/08 00:24:24;;;;;;;9.73;2.30;;;;;;;6.53;75.62;97750.20;1759664;79;25782;-69
2022/04/08 00:26:57;;;;;;;8.25;1.92;;;;;;;6.51;75.59;97745.00;1751690;79;98661;-70
2022/04/08 00:29:25;;;;;;;10.03;2.25;;;;;;;6.45;75.56;97755.60;1740275;80;27333;-69
2022/04/08 00:31:57;;;;;;;9.83;2.12;;;;;;;6.41;75.58;97746.63;1735030;80;25775;-70
2022/04/08 00:34:21;;;;;;;5.10;1.50;;;;;;;6.38;75.51;97750.84;1742062;80;98038;-69
2022/04/08 00:36:48;;;;;;;6.25;1.82;;;;;;;6.35;75.52;97755.05;1741944;80;25747;-68
2022/04/08 00:39:14;;;;;;;7.55;2.00;;;;;;;6.33;75.56;97763.14;1741741;80;98304;-68
2022/04/08 00:41:40;;;;;;;8.50;1.72;;;;;;;6.27;75.23;97760.92;1740424;80;26788;-69
2022/04/08 00:44:07;;;;;;;10.00;2.30;;;;;;;6.25;75.50;97751.35;1732583;80;98315;-68
2022/04/08 00:46:38;;;;;;;6.85;1.75;;;;;;;6.25;75.55;97761.52;1734101;80;27472;-69
2022/04/08 00:49:04;;;;;;;4.40;1.57;;;;;;;6.24;75.57;97754.97;1735424;80;25872;-69
2022/04/08 00:51:34;;;;;;;9.05;1.52;;;;;;;6.24;75.56;97773.59;1731128;80;98150;-71
2022/04/08 00:54:05;;;;;;;9.55;1.60;;;;;;;6.31;75.37;97777.51;1732036;80;25831;-70
2022/04/08 00:56:34;;;;;;;7.30;1.60;;;;;;;6.38;75.35;97777.44;1733646;80;98334;-70
2022/04/08 00:59:03;;;;;;;4.60;1.32;;;;;;;6.42;75.18;97775.78;1734410;80;27992;-72
2022/04/08 01:01:30;;;;;;;14.60;2.12;;;;;;;6.55;74.92;97775.73;1733255;80;25759;-68
2022/04/08 01:03:57;;;;;;;5.62;1.50;;;;;;;6.60;74.54;97778.92;1732537;80;98402;-70
2022/04/08 01:06:25;;;;;;;9.33;1.60;;;;;;;6.64;74.58;97775.07;1730122;80;26437;-69
2022/04/08 01:08:54;;;;;;;5.25;1.45;;;;;;;6.67;74.33;97774.84;1734923;80;98208;-68
2022/04/08 01:11:21;;;;;;;7.15;1.47;;;;;;;6.72;74.14;97770.03;1741372;80;28742;-68
2022/04/08 01:13:49;;;;;;;14.70;1.72;;;;;;;6.82;73.86;97772.87;1735076;80;25934;-69
2022/04/08 01:16:19;;;;;;;5.92;1.40;;;;;;;6.87;73.67;97769.87;1734718;80;98230;-69
2022/04/08 01:18:45;;;;;;;8.83;1.60;;;;;;;6.96;73.49;97758.53;1732716;80;27688;-68
2022/04/08 01:21:13;;;;;;;4.35;1.25;;;;;;;6.99;73.46;97767.63;1729528;80;98124;-69
2022/04/08 01:23:39;;;;;;;4.83;1.52;;;;;;;7.03;72.52;97771.76;1735486;80;27382;-68
2022/04/08 01:26:09;;;;;;;7.30;1.15;;;;;;;7.07;73.06;97763.91;1731710;80;98507;-68
2022/04/08 01:28:38;;;;;;;6.67;1.65;;;;;;;7.10;72.77;97763.19;1752509;79;25765;-70
2022/04/08 01:31:07;;;;;;;4.92;1.20;;;;;;;7.11;72.22;97760.05;1749204;79;25895;-68
2022/04/08 01:33:34;;;;;;;3.42;1.20;;;;;;;7.15;72.28;97758.85;1761616;79;98163;-69
2022/04/08 01:36:02;;;;;;;6.70;1.37;;;;;;;7.17;72.30;97751.59;1750689;79;27422;-68
2022/04/08 01:38:31;;;;;;;6.92;1.55;;;;;;;7.19;71.94;97757.66;1754255;79;98358;-69
2022/04/08 01:41:00;;;;;;;3.25;1.27;;;;;;;7.20;71.17;97747.85;1751839;80;26380;-69
2022/04/08 01:43:28;;;;;;;10.25;1.20;;;;;;;7.18;71.45;97750.63;1754460;79;25834;-69
2022/04/08 01:45:53;;;;;;;4.40;1.40;;;;;;;7.16;71.27;97749.90;1750339;79;98522;-69
2022/04/08 01:48:19;;;;;;;4.08;1.50;;;;;;;7.16;70.97;97763.22;1755351;80;28292;-69
2022/04/08 01:50:49;;;;;;;7.00;1.17;;;;;;;7.21;70.67;97764.20;1751181;79;98522;-69
2022/04/08 01:53:15;;;;;;;3.27;0.70;;;;;;;7.24;70.89;97765.30;1760251;80;25312;-68
2022/04/08 01:55:42;;;;;;;10.98;1.45;;;;;;;7.24;70.75;97762.64;1762094;79;25766;-69
2022/04/08 01:58:14;;;;;;;7.50;1.20;;;;;;;7.22;70.59;97753.43;1755065;79;98484;-71
2022/04/08 02:00:38;;;;;;;2.35;0.78;;;;;;;7.24;69.73;97755.49;1759527;79;27469;-68
2022/04/08 02:03:04;;;;;;;3.42;1.07;;;;;;;7.24;70.43;97763.48;1755462;79;98310;-68
2022/04/08 02:05:32;;;;;;;6.45;1.50;;;;;;;7.24;70.56;97768.81;1759228;79;25898;-68
2022/04/08 02:08:02;;;;;;;6.17;1.37;;;;;;;7.22;68.84;97764.09;1758534;79;98336;-69
2022/04/08 02:10:27;;;;;;;7.20;1.77;;;;;;;7.17;70.05;97767.58;1753199;80;25935;-69
2022/04/08 02:12:55;;;;;;;3.70;1.22;;;;;;;7.13;70.38;97771.44;1756923;79;28649;-69
2022/04/08 02:15:31;;;;;;;6.45;1.70;;;;;;;7.10;70.32;97769.00;1724829;82;97274;-69
2022/04/08 02:18:02;;;;;;;4.40;1.20;;;;;;;7.07;70.50;97774.08;1757983;80;25583;-67
2022/04/08 02:20:32;;;;;;;5.67;1.30;;;;;;;7.06;70.58;97763.54;1752159;79;98400;-69
2022/04/08 02:23:00;;;;;;;2.05;0.98;;;;;;;7.07;70.50;97765.23;1755553;79;25908;-69
2022/04/08 02:25:31;;;;;;;6.83;1.22;;;;;;;7.08;70.53;97768.27;1756361;80;28475;-69
2022/04/08 02:27:58;;;;;;;4.33;1.10;;;;;;;7.11;70.37;97773.36;1748404;79;98217;-68
2022/04/08 02:30:26;;;;;;;12.20;2.58;;;;;;;7.16;69.57;97776.53;1757236;79;25785;-69
2022/04/08 02:32:54;;;;;;;3.42;1.50;;;;;;;7.23;69.50;97779.10;1757438;79;98342;-68
2022/04/08 02:35:20;;;;;;;8.00;2.30;;;;;;;7.29;69.03;97803.95;1764836;79;25848;-67
2022/04/08 02:37:52;;;;;;;5.25;1.20;;;;;;;7.22;69.28;97782.73;1756267;79;45352;-67
2022/04/08 02:40:17;;;;;;;16.87;2.22;;;;;;;7.12;69.24;97874.47;1765413;79;97922;-67
2022/04/08 02:42:43;;;;;;;15.00;4.10;;;;;;;7.07;69.33;97843.32;1723309;80;26470;-68
2022/04/08 02:45:09;;;;;;;11.25;2.08;;;;;;;7.07;69.26;97821.17;1703007;82;98295;-68
2022/04/08 02:47:45;;;;;;;19.60;3.85;;;;;;;7.01;69.37;97814.48;1727734;81;25829;-67
2022/04/08 02:50:12;;;;;;;9.90;1.77;;;;;;;6.84;69.70;97825.52;1693534;82;98426;-67
2022/04/08 02:52:39;;;;;;;8.43;2.05;;;;;;;6.73;70.12;97815.66;1707985;82;25727;-68
2022/04/08 02:55:07;;;;;;;8.08;1.30;;;;;;;6.63;70.21;97805.79;1732915;80;25809;-67
2022/04/08 02:57:46;;;;;;;9.25;2.00;;;;;;;6.55;70.39;97838.75;1736504;80;98013;-68
2022/04/08 03:00:19;;;;;;;4.58;1.32;;;;;;;6.53;70.59;97820.23;1735922;80;25920;-67
2022/04/08 03:02:47;;;;;;;4.42;1.57;;;;;;;6.53;70.82;97841.53;1754529;79;98255;-67
2022/04/08 03:05:14;;;;;;;5.80;1.52;;;;;;;6.55;70.85;97818.80;1758248;79;26460;-68
2022/04/08 03:07:39;;;;;;;8.05;2.47;;;;;;;6.56;70.83;97846.63;1768419;79;25782;-67
2022/04/08 03:10:08;;;;;;;17.52;3.80;;;;;;;6.63;71.01;97846.56;1769945;79;98123;-68
2022/04/08 03:12:34;;;;;;;16.10;2.83;;;;;;;6.61;70.95;97859.61;1769208;79;26009;-68
2022/04/08 03:15:01;;;;;;;16.45;3.17;;;;;;;6.59;70.94;97857.53;1761791;79;98465;-68
2022/04/08 03:17:27;;;;;;;14.73;4.33;;;;;;;6.55;71.08;97892.83;1770279;79;26432;-68
2022/04/08 03:19:53;;;;;;;21.42;4.70;;;;;;;6.53;71.14;97873.94;1764740;79;26440;-68
2022/04/08 03:22:21;;;;;;;8.63;2.47;;;;;;;6.48;71.34;97882.25;1765315;79;97272;-70
2022/04/08 03:24:48;;;;;;;26.15;5.45;;;;;;;6.39;71.57;97893.53;1724308;80;25874;-69
2022/04/08 03:27:15;;;;;;;13.30;3.35;;;;;;;6.17;71.85;97906.15;1724651;80;98483;-67
2022/04/08 03:29:43;;;;;;;13.30;3.37;;;;;;;6.04;72.34;97929.22;1712064;82;25785;-68
2022/04/08 03:32:11;;;;;;;13.45;3.75;;;;;;;6.06;73.62;97925.98;1718859;81;98691;-67
2022/04/08 03:34:38;;;;;;;17.07;3.98;;;;;;;6.03;73.35;97911.56;1718853;81;25761;-70
2022/04/08 03:37:05;;;;;;;23.90;5.85;;;;;;;5.96;73.40;97914.27;1731593;81;26394;-69
2022/04/08 03:39:32;;;;;;;19.42;4.40;;;;;;;5.93;74.03;97945.05;1720370;80;98361;-69
2022/04/08 03:41:58;;;;;;;18.92;4.35;;;;;;;5.91;74.07;97929.68;1727754;81;25748;-69
2022/04/08 03:44:24;;;;;;;15.38;3.55;;;;;;;5.87;74.37;97946.28;1726675;82;98553;-69
2022/04/08 03:46:50;;;;;;;25.65;6.42;;;;;;;5.84;74.60;97941.17;1722058;81;25750;-69
2022/04/08 03:49:17;;;;;;;18.92;4.37;;;;;;;5.87;74.72;97963.08;1722751;81;25813;-69
2022/04/08 03:51:45;;;;;;;20.50;3.80;;;;;;;5.93;74.85;97939.73;1729240;81;98391;-69
2022/04/08 03:54:18;;;;;;;14.43;3.58;;;;;;;5.96;74.86;97948.83;1725085;81;26400;-69
2022/04/08 03:56:45;;;;;;;20.95;4.53;;;;;;;5.99;74.81;97980.53;1726644;81;97462;-68
2022/04/08 03:59:13;;;;;;;14.25;3.62;;;;;;;6.05;74.88;97990.27;1728265;81;25821;-67
2022/04/08 04:01:41;;;;;;;21.27;4.78;;;;;;;6.10;74.82;97996.14;1724883;81;26530;-68
2022/04/08 04:04:10;;;;;;;6.83;1.52;;;;;;;6.12;74.81;97976.94;1722624;81;98397;-68
2022/04/08 04:06:37;;;;;;;15.65;3.98;;;;;;;6.12;74.94;97998.21;1723699;81;25799;-68
2022/04/08 04:09:04;;;;;;;12.73;3.80;;;;;;;6.14;74.86;98020.72;1732360;81;98332;-68
2022/04/08 04:11:31;;;;;;;20.43;3.58;;;;;;;6.15;74.87;98008.64;1725064;81;26138;-68
2022/04/08 04:13:57;;;;;;;10.75;2.47;;;;;;;6.13;74.81;98014.55;1723152;80;25798;-68
2022/04/08 04:16:24;;;;;;;14.05;3.60;;;;;;;6.10;74.99;98005.44;1725757;80;98287;-68
2022/04/08 04:18:50;;;;;;;23.45;5.65;;;;;;;6.07;75.01;98024.74;1727948;80;25726;-68
2022/04/08 04:21:16;;;;;;;15.80;4.10;;;;;;;6.02;75.12;98063.60;1726647;81;98440;-68
2022/04/08 04:23:42;;;;;;;14.85;2.60;;;;;;;6.00;75.15;98038.92;1724997;80;25791;-68
2022/04/08 04:26:10;;;;;;;7.83;2.83;;;;;;;6.00;75.24;98037.59;1721436;82;98560;-67
2022/04/08 04:28:38;;;;;;;10.95;2.62;;;;;;;5.98;75.46;98074.06;1731513;79;27534;-68
2022/04/08 04:31:06;;;;;;;8.20;2.25;;;;;;;6.04;75.46;98049.73;1769675;79;25764;-68
2022/04/08 04:33:31;;;;;;;27.15;5.55;;;;;;;6.04;75.54;98056.85;1754979;79;98197;-69
2022/04/08 04:35:57;;;;;;;25.10;5.50;;;;;;;6.05;75.40;98047.45;1765473;79;26341;-69
2022/04/08 04:38:25;;;;;;;12.98;3.52;;;;;;;6.08;75.38;98063.67;1758648;79;98544;-68
2022/04/08 04:40:52;;;;;;;13.45;2.60;;;;;;;6.09;75.18;98104.80;1766020;79;28496;-68
2022/04/08 04:43:18;;;;;;;6.90;2.65;;;;;;;6.15;75.28;98067.63;1763712;79;27055;-67
2022/04/08 04:45:46;;;;;;;14.40;4.15;;;;;;;6.18;75.00;98097.53;1756175;79;98228;-67
2022/04/08 04:48:12;;;;;;;10.58;2.83;;;;;;;6.25;75.09;98083.83;1759523;79;25725;-67
2022/04/08 04:50:39;;;;;;;13.40;1.77;;;;;;;6.29;74.94;98085.33;1765099;79;98662;-67
2022/04/08 04:53:07;;;;;;;5.47;1.90;;;;;;;6.34;74.53;98109.82;1752502;79;27422;-68
2022/04/08 04:55:33;;;;;;;11.60;3.47;;;;;;;6.38;73.96;98112.17;1762939;79;26094;-68
2022/04/08 04:58:00;;;;;;;12.93;2.33;;;;;;;6.43;74.43;98114.05;1766892;79;98479;-66
2022/04/08 05:00:27;;;;;;;7.28;2.47;;;;;;;6.45;74.27;98112.62;1764229;79;25964;-66
2022/04/08 05:02:54;;;;;;;4.35;1.35;;;;;;;6.49;74.18;98116.78;1752938;79;97350;-66
2022/04/08 05:05:20;;;;;;;5.85;1.75;;;;;;;6.52;73.96;98112.58;1772507;79;28156;-67
2022/04/08 05:07:50;;;;;;;7.72;2.75;;;;;;;6.57;73.57;98125.58;1768421;79;26740;-67
2022/04/08 05:10:16;;;;;;;9.18;2.37;;;;;;;6.60;73.32;98112.92;1750203;79;97292;-68
2022/04/08 05:12:42;;;;;;;9.20;2.05;;;;;;;6.61;72.87;98146.56;1759303;79;25756;-67
2022/04/08 05:15:09;;;;;;;5.95;1.47;;;;;;;6.66;72.90;98139.13;1770726;79;98228;-67
2022/04/08 05:17:36;;;;;;;10.18;2.33;;;;;;;6.70;72.71;98139.77;1764210;79;27400;-66
2022/04/08 05:20:10;;;;;;;11.90;3.72;;;;;;;6.72;72.64;98165.33;1761872;79;98403;-67
2022/04/08 05:22:41;;;;;;;11.68;2.65;;;;;;;6.80;72.05;98162.15;1763241;79;25915;-66
2022/04/08 05:25:08;;;;;;;14.73;3.37;;;;;;;6.83;72.09;98147.30;1759421;79;26401;-66
2022/04/08 05:27:43;;;;;;;10.85;3.30;;;;;;;6.84;71.92;98162.31;1764406;79;98394;-67
2022/04/08 05:30:19;;;;;;;21.33;5.25;;;;;;;6.88;71.64;98160.30;1753171;79;27566;-66
2022/04/08 05:32:48;;;;;;;11.93;3.22;;;;;;;6.91;71.61;98152.95;1715219;80;98643;-67
2022/04/08 05:35:17;;;;;;;9.73;2.75;;;;;;;6.95;71.28;98177.56;1703760;82;25885;-67
2022/04/08 05:37:46;;;;;;;14.73;4.58;;;;;;;6.99;71.02;98171.92;1723906;80;25760;-67
2022/04/08 05:40:16;;;;;;;10.95;2.52;;;;;;;7.02;70.91;98175.71;1730764;80;98260;-66
2022/04/08 05:42:46;;;;;;;10.82;3.30;;;;;;;7.05;70.66;98185.30;1722237;81;27561;-67
2022/04/08 05:45:18;;;;;;;17.15;4.53;;;;;;;7.06;70.42;98199.00;1688649;82;98331;-67
2022/04/08 05:47:54;;;;;;;24.80;6.83;;;;;;;7.10;70.46;98212.00;1727424;81;25872;-67
2022/04/08 05:50:22;;;;;;;14.83;3.75;;;;;;;7.13;70.29;98215.79;1693503;82;98452;-65
2022/04/08 05:52:52;;;;;;;10.80;2.65;;;;;;;7.17;70.28;98215.10;1732008;81;25619;-66
2022/04/08 05:55:22;;;;;;;6.67;2.12;;;;;;;7.21;70.36;98213.94;1723408;80;28072;-65
2022/04/08 05:57:49;;;;;;;7.50;2.35;;;;;;;7.27;69.72;98245.48;1732393;80;98134;-66
2022/04/08 06:00:18;;;;;;;15.72;4.78;;;;;;;7.30;69.81;98231.10;1724098;80;26598;-66
2022/04/08 06:02:47;;;;;;;10.63;3.55;;;;;;;7.27;69.91;98233.50;1729962;81;98558;-68
2022/04/08 06:05:20;;;;;;;11.85;2.72;;;;;;;7.28;69.86;98254.34;1736776;81;26168;-66
2022/04/08 06:07:56;;;;;;;4.53;1.67;;;;;;;7.26;69.80;98258.91;1726258;81;27511;-66
2022/04/08 06:10:26;;;;;;;6.72;1.67;;;;;;;7.27;69.88;98256.15;1733781;81;97913;-66
2022/04/08 06:12:56;;;;;;;17.42;5.03;;;;;;;7.24;69.84;98277.67;1733312;80;25741;-67
2022/04/08 06:15:23;;;;;;;13.13;3.40;;;;;;;7.19;69.74;98255.81;1734975;80;98476;-66
2022/04/08 06:17:51;;;;;;;13.68;4.20;;;;;;;7.18;69.97;98289.22;1761544;79;26441;-67
2022/04/08 06:20:18;;;;;;;5.87;1.80;;;;;;;7.22;70.04;98264.08;1762472;79;98539;-67
2022/04/08 06:22:47;;;;;;;3.92;1.20;;;;;;;7.16;70.08;98271.52;1756168;79;26040;-67
2022/04/08 06:25:17;;;;;;;13.30;4.00;;;;;;;7.13;70.29;98283.72;1765540;79;26628;-66
2022/04/08 06:28:03;;;;;;;16.07;4.53;;;;;;;6.96;70.48;98297.30;1760200;79;98346;-67
2022/04/08 06:30:39;;;;;;;5.90;2.37;;;;;;;6.82;70.88;98297.36;1731692;79;25885;-69
2022/04/08 06:33:09;;;;;;;4.45;2.35;;;;;;;6.65;71.11;98294.46;1730913;81;97271;-70
2022/04/08 06:35:37;;;;;;;5.08;1.80;;;;;;;6.51;71.59;98329.95;1726586;80;26266;-71
2022/04/08 06:38:07;;;;;;;4.67;1.90;;;;;;;6.36;71.92;98318.09;1726300;81;26294;-72
2022/04/08 06:40:41;;;;;;;2.95;1.55;;;;;;;6.18;72.69;98335.59;1726413;80;97992;-70
2022/04/08 06:43:09;;;;;;;7.12;1.62;;;;;;;5.98;73.12;98343.09;1726546;81;25813;-74
2022/04/08 06:45:36;;;;;;;2.50;0.93;;;;;;;5.66;73.84;98345.86;1721016;81;97287;-72
2022/04/08 06:48:02;;;;;;;1.40;1.07;;;;;;;5.20;75.37;98351.23;1725080;81;25791;-73
2022/04/08 06:50:30;;;;;;;4.10;1.47;;;;;;;4.78;75.11;98358.56;1722496;80;98445;-77
2022/04/08 06:52:59;;;;;;;6.78;2.40;;;;;;;4.62;76.35;98368.31;1726645;81;25834;-77
2022/04/08 06:55:24;;;;;;;6.62;1.87;;;;;;;4.46;76.45;98347.08;1725726;80;25762;-76
2022/04/08 06:57:52;;;;;;;3.30;1.40;;;;;;;4.39;77.39;98380.19;1726919;81;97302;-75
2022/04/08 07:00:18;;;;;;;3.70;1.42;;;;;;;4.30;78.29;98436.38;1728328;80;25720;-74
2022/04/08 07:02:45;;;;;;;3.85;1.47;;;;;;;4.13;78.56;98404.59;1730833;80;98413;-75
2022/04/08 07:05:13;;;;;;;2.33;0.88;;;;;;;4.07;79.24;98385.89;1729544;80;26660;-75
2022/04/08 07:07:40;;;;;;;7.97;1.62;;;;;;;4.03;79.39;98377.72;1733616;80;25774;-75
2022/04/08 07:10:09;;;;;;;3.83;1.42;;;;;;;4.03;80.14;98402.90;1728232;81;97329;-75
2022/04/08 07:12:35;;;;;;;3.30;1.17;;;;;;;4.02;80.39;98436.11;1727092;81;25821;-75
2022/04/08 07:15:04;;;;;;;12.00;3.22;;;;;;;4.03;80.47;98416.63;1725827;81;98194;-76
2022/04/08 07:17:33;;;;;;;1.20;0.90;;;;;;;3.98;81.02;98422.63;1732524;81;25833;-75
2022/04/08 07:20:00;;;;;;;3.35;1.10;;;;;;;3.91;81.23;98438.85;1724915;81;25864;-74
2022/04/08 07:22:28;;;;;;;1.72;1.10;;;;;;;3.82;81.29;98433.17;1727380;80;97286;-73
2022/04/08 07:24:56;;;;;;;3.37;0.85;;;;;;;3.75;81.46;98460.44;1722247;80;26202;-71
2022/04/08 07:27:24;;;;;;;2.15;0.98;;;;;;;3.55;81.93;98469.39;1730160;81;98207;-75
2022/04/08 07:29:51;;;;;;;1.72;1.00;;;;;;;3.39;82.42;98475.05;1738021;80;25778;-75
2022/04/08 07:32:21;;;;;;;3.05;0.78;;;;;;;3.29;82.91;98488.34;1762105;79;98442;-72
2022/04/08 07:34:51;;;;;;;4.17;1.27;;;;;;;3.24;83.10;98486.38;1726662;81;27621;-74
2022/04/08 07:37:30;;;;;;;3.27;1.50;;;;;;;3.25;83.17;98491.60;1720490;80;25962;-71
2022/04/08 07:39:56;;;;;;;2.00;1.22;;;;;;;3.31;83.10;98485.16;1730948;81;97338;-70
2022/04/08 07:42:26;;;;;;;2.00;1.50;;;;;;;3.39;83.33;98485.64;1729615;81;25751;-70
2022/04/08 07:44:53;;;;;;;4.95;1.90;;;;;;;3.44;83.41;98507.92;1735622;80;98314;-68
2022/04/08 07:47:20;;;;;;;2.65;1.57;;;;;;;3.50;83.44;98502.33;1729726;80;27464;-72
2022/04/08 07:49:47;;;;;;;5.00;2.05;;;;;;;3.61;83.88;98517.70;1766933;79;25805;-72
2022/04/08 07:52:15;;;;;;;3.70;2.35;;;;;;;3.68;84.03;98518.64;1761323;79;98270;-71
2022/04/08 07:54:43;;;;;;;3.02;1.20;;;;;;;3.78;84.27;98538.92;1760820;79;25790;-72
2022/04/08 07:57:12;;;;;;;3.27;1.35;;;;;;;3.82;84.64;98540.48;1767674;79;98619;-72
2022/04/08 07:59:39;;;;;;;3.37;1.80;;;;;;;3.89;84.76;98532.62;1763537;79;28294;-75
2022/04/08 08:02:06;;;;;;;2.45;1.47;;;;;;;3.96;84.89;98522.10;1761727;79;26535;-72
2022/04/08 08:04:37;;;;;;;6.40;1.60;;;;;;;4.05;85.35;98549.47;1758158;79;98022;-70
2022/04/08 08:07:04;;;;;;;5.17;2.00;;;;;;;4.13;85.53;98533.17;1732013;81;25751;-74
2022/04/08 08:09:34;;;;;;;5.22;2.05;;;;;;;4.22;85.42;98546.82;1725597;81;98181;-74
2022/04/08 08:12:02;;;;;;;5.05;2.55;;;;;;;4.32;85.60;98571.55;1699564;82;27464;-72
2022/04/08 08:14:32;;;;;;;4.72;2.30;;;;;;;4.37;85.59;98553.60;1724853;81;98284;-71
2022/04/08 08:16:59;;;;;;;3.85;1.77;;;;;;;4.46;85.66;98557.11;1697807;82;25839;-72
2022/04/08 08:19:28;;;;;;;3.80;2.17;;;;;;;4.57;85.84;98570.67;1727338;81;26325;-73
2022/04/08 08:21:54;;;;;;;3.62;2.12;;;;;;;4.65;85.71;98568.48;1735536;80;98647;-73
2022/04/08 08:24:22;;;;;;;5.37;2.22;;;;;;;4.76;85.77;98571.89;1733076;80;27460;-73
2022/04/08 08:26:49;;;;;;;4.35;1.92;;;;;;;4.87;85.99;98577.48;1731663;80;98324;-74
2022/04/08 08:29:15;;;;;;;6.12;1.90;;;;;;;4.94;86.21;98603.23;1731894;81;26239;-74
2022/04/08 08:31:42;;;;;;;4.37;2.05;;;;;;;5.00;86.60;98586.98;1717799;81;25856;-74
2022/04/08 08:34:09;;;;;;;5.12;2.30;;;;;;;5.03;86.52;98595.64;1750443;80;98163;-72
2022/04/08 08:36:37;;;;;;;5.45;1.87;;;;;;;5.13;86.93;98612.80;1751250;80;27342;-72
2022/04/08 08:39:03;;;;;;;4.22;1.40;;;;;;;5.20;87.05;98606.69;1750177;80;97297;-72
2022/04/08 08:41:31;;;;;;;2.17;1.07;;;;;;;5.28;87.08;98603.58;1748821;80;25856;-71
2022/04/08 08:43:57;;;;;;;3.77;0.90;;;;;;;5.27;87.12;98610.69;1755109;80;27859;-72
2022/04/08 08:46:25;;;;;;;2.60;0.93;;;;;;;5.16;86.67;98624.58;1749370;80;97283;-71
2022/04/08 08:48:54;;;;;;;3.85;1.55;;;;;;;5.18;86.75;98628.48;1748532;80;27403;-73
2022/04/08 08:51:22;;;;;;;2.42;1.10;;;;;;;5.19;86.58;98644.80;1746729;80;97390;-72
2022/04/08 08:53:50;;;;;;;7.53;1.87;;;;;;;5.17;86.45;98620.13;1748178;80;26082;-71
2022/04/08 08:56:17;;;;;;;5.10;2.58;;;;;;;5.23;86.38;98640.55;1755298;80;98311;-69
2022/04/08 08:58:43;;;;;;;2.65;1.25;;;;;;;5.27;86.08;98639.91;1745773;80;25800;-71
2022/04/08 09:01:12;;;;;;;3.15;1.80;;;;;;;5.35;86.17;98636.84;1751766;80;27483;-71
2022/04/08 09:03:41;;;;;;;3.52;1.07;;;;;;;5.37;86.00;98637.14;1750406;80;98129;-71
2022/04/08 09:06:10;;;;;;;3.87;1.35;;;;;;;5.51;86.13;98654.52;1749939;80;26719;-69
2022/04/08 09:08:41;;;;;;;7.65;2.17;;;;;;;5.56;86.06;98646.30;1746553;80;98568;-70
2022/04/08 09:11:10;;;;;;;3.77;1.25;;;;;;;5.59;85.99;98651.92;1751294;80;25914;-70
2022/04/08 09:13:49;;;;;;;8.75;2.67;;;;;;;5.69;85.79;98657.11;1746155;80;27521;-70
2022/04/08 09:16:35;;;;;;;5.30;1.90;;;;;;;5.77;85.68;98658.41;1754673;80;98243;-69
2022/04/08 09:18:56;;;;;;;4.85;1.05;;;;;;;5.87;85.38;98642.33;1749095;80;25736;-69
2022/04/08 09:21:24;;;;;;;2.62;1.27;;;;;;;5.93;85.12;98688.16;1743878;80;98148;-69
2022/04/08 09:23:50;;;;;;;4.03;1.37;;;;;;;5.84;85.05;98673.55;1751899;80;25731;-69
2022/04/08 09:26:16;;;;;;;2.10;1.17;;;;;;;5.86;85.00;98653.05;1755620;80;98463;-68
2022/04/08 09:28:44;;;;;;;7.37;2.62;;;;;;;5.91;84.74;98643.05;1747869;80;25914;-67
2022/04/08 09:31:21;;;;;;;2.70;1.10;;;;;;;5.90;84.48;98668.39;1760154;79;25819;-67
2022/04/08 09:33:55;;;;;;;2.65;0.90;;;;;;;5.86;84.01;98665.88;1763056;79;98208;-69
2022/04/08 09:36:33;;;;;;;1.65;1.20;;;;;;;5.81;83.92;98665.73;1757693;79;26487;-67
2022/04/08 09:39:03;;;;;;;2.87;1.10;;;;;;;5.78;83.93;98673.88;1755688;79;98348;-68
2022/04/08 09:41:53;;;;;;;1.45;0.95;;;;;;;5.73;83.59;98671.95;1769395;79;25851;-70
2022/04/08 09:44:24;;;;;;;3.52;1.27;;;;;;;5.71;83.54;98667.19;1767767;79;98170;-68
2022/04/08 09:46:53;;;;;;;;;;;;;;;5.73;83.50;98674.61;1772248;79;25860;-66
2022/04/08 09:49:24;;;;;;;2.90;1.65;;;;;;;5.76;83.50;98677.09;1766861;79;26164;-68
2022/04/08 09:51:51;;;;;;;2.25;1.60;;;;;;;5.76;83.40;98674.44;1763420;79;98165;-67
2022/04/08 09:54:24;;;;;;;5.10;1.62;;;;;;;5.74;83.13;98668.35;1765438;79;26831;-69
2022/04/08 09:56:52;;;;;;;4.42;1.90;;;;;;;5.57;82.71;98662.63;1771608;79;98722;-66
2022/04/08 09:59:23;;;;;;;3.65;1.50;;;;;;;5.48;82.75;98665.31;1765355;79;27026;-67
2022/04/08 10:01:53;;;;;;;6.67;1.72;;;;;;;5.36;82.46;98665.98;1767527;79;25721;-68
2022/04/08 10:04:20;;;;;;;3.37;1.25;;;;;;;5.06;82.21;98696.84;1762986;79;97398;-67
2022/04/08 10:06:50;;;;;;;3.50;1.05;;;;;;;4.78;81.88;98746.04;1765850;79;25355;-67
2022/04/08 10:09:19;;;;;;;1.80;1.25;;;;;;;4.35;81.82;98771.63;1764987;79;97315;-71
2022/04/08 10:12:29;;;;;;;1.82;1.30;;;;;;;3.63;81.59;98768.35;1766302;79;26349;-70
2022/04/08 10:15:08;;;;;;;3.90;1.27;;;;;;;3.07;82.54;98754.97;1765053;79;98471;-72
2022/04/08 10:17:35;;;;;;;2.62;1.45;;;;;;;2.64;82.81;98788.98;1768302;79;27499;-73
2022/04/08 10:20:21;;;;;;;4.40;1.02;;;;;;;2.50;83.21;98789.57;1760951;79;25829;-73
2022/04/08 10:22:51;;;;;;;12.43;1.10;;;;;;;2.34;83.84;98788.46;1764360;79;97957;-72
2022/04/08 10:25:21;;;;;;;1.85;1.20;;;;;;;2.22;83.87;98774.81;1764532;79;25534;-73
2022/04/08 10:27:49;;;;;;;2.40;1.37;;;;;;;2.12;84.09;98735.13;1723057;81;98569;-73
2022/04/08 10:30:22;;;;;;;7.50;1.40;;;;;;;2.12;84.09;98735.13;1743198;80;27498;-73
2022/04/08 10:32:59;;;;;;;3.42;2.10;;;;;;;2.37;84.40;98720.92;1759448;79;98371;-75
2022/04/08 10:35:29;;;;;;;8.23;1.57;;;;;;;2.59;84.72;98736.30;1766853;79;25960;-75
2022/04/08 10:38:03;;;;;;;8.00;3.12;;;;;;;2.87;84.94;98732.86;1757748;79;26365;-77
2022/04/08 10:40:48;;;;;;;4.42;2.42;;;;;;;3.09;84.82;98733.27;1766138;79;98243;-74
2022/04/08 10:43:10;;;;;;;5.78;2.60;;;;;;;3.20;84.86;98726.57;1771597;79;27414;-73
2022/04/08 10:45:40;;;;;;;14.38;4.22;;;;;;;3.30;84.99;98740.27;1764360;79;98222;-72
2022/04/08 10:48:14;;;;;;;8.03;3.72;;;;;;;3.49;85.46;98741.16;1735153;80;26013;-76
2022/04/08 10:50:41;;;;;;;6.35;3.02;;;;;;;3.65;85.65;98732.05;1717756;81;98269;-73
2022/04/08 10:53:13;;;;;;;8.88;3.15;;;;;;;3.86;85.77;98727.09;1761573;79;25648;-73
2022/04/08 10:55:55;;;;;;;7.30;2.17;;;;;;;3.99;86.18;98732.67;1764057;79;27406;-72
2022/04/08 10:58:49;;;;;;;8.73;2.92;;;;;;;3.96;86.27;98737.26;1764645;79;98741;-71
2022/04/08 11:01:25;;;;;;;8.43;2.92;;;;;;;4.06;86.58;98732.77;1761606;79;25946;-71
2022/04/08 11:04:07;;;;;;;5.75;2.77;;;;;;;4.22;86.74;98727.13;1701659;82;98258;-72
2022/04/08 11:06:37;;;;;;;9.65;2.33;;;;;;;4.34;86.73;98737.61;1698024;82;26394;-73
2022/04/08 11:09:06;;;;;;;13.20;2.42;;;;;;;4.35;86.76;98719.91;1729416;80;98275;-71
2022/04/08 11:11:39;;;;;;;9.18;2.72;;;;;;;4.38;87.11;98759.55;1732052;81;26974;-71
2022/04/08 11:14:07;;;;;;;20.68;3.80;;;;;;;4.40;87.26;98734.66;1730616;81;26055;-71
2022/04/08 11:16:36;;;;;;;11.03;2.60;;;;;;;4.51;87.53;98732.81;1731145;80;98286;-70
2022/04/08 11:19:05;;;;;;;12.03;2.50;;;;;;;4.58;87.54;98732.05;1728255;81;26681;-71
2022/04/08 11:21:35;;;;;;;13.22;1.98;;;;;;;4.70;87.61;98751.34;1717851;81;98439;-72
2022/04/08 11:24:18;;;;;;;8.73;2.10;;;;;;;4.83;87.63;98741.83;1699486;82;25948;-71
2022/04/08 11:26:53;;;;;;;14.15;2.35;;;;;;;5.02;87.69;98752.38;1700826;82;98497;-70
2022/04/08 11:29:27;;;;;;;10.58;1.85;;;;;;;5.09;87.38;98755.11;1761207;79;25902;-71
2022/04/08 11:32:11;;;;;;;11.05;1.92;;;;;;;5.16;87.29;98781.27;1704101;82;25819;-70
2022/04/08 11:34:38;;;;;;;10.08;1.72;;;;;;;5.28;87.27;98792.17;1728199;81;98881;-70
2022/04/08 11:37:07;;;;;;;19.80;3.12;;;;;;;5.41;87.02;98772.00;1729850;80;25895;-71
2022/04/08 11:39:32;;;;;;;6.90;2.00;;;;;;;5.64;87.00;98776.11;1753075;79;98214;-72
2022/04/08 11:42:02;;;;;;;7.45;1.85;;;;;;;5.72;86.12;98761.94;1757651;79;26439;-72
2022/04/08 11:44:29;;;;;;;8.88;1.95;;;;;;;5.81;85.89;98799.52;1771511;79;98359;-69
2022/04/08 11:47:07;;;;;;;12.58;2.20;;;;;;;5.87;85.23;98787.70;1763435;79;28304;-69
2022/04/08 11:49:35;;;;;;;10.68;2.58;;;;;;;5.96;84.75;98767.30;1764310;79;25937;-69